Time;durP1;ratioP1;P1;durP2;ratioP2;P2;SDS_P1;SDS_P2;PMS_P1;PMS_P2;Temp;Humidity;BMP_temperature;BMP_pressure;BME280_temperature;BME280_humidity;BME280_pressure;Samples;Min_cycle;Max_cycle;Signal;HPM_P1;HPM_P2
2024/04/03 00:00:39;;;;;;;11.30;2.65;;;8.80;99.90;;;;;;4971558;28;20115;-91
2024/04/03 00:03:05;;;;;;;9.10;2.20;;;8.80;99.90;;;;;;4938558;28;20047;-90
2024/04/03 00:05:31;;;;;;;15.73;3.42;;;8.80;99.90;;;;;;4954454;28;20045;-92
2024/04/03 00:07:57;;;;;;;7.53;1.90;;;8.70;99.90;;;;;;4936860;28;20038;-91
2024/04/03 00:10:22;;;;;;;15.90;2.97;;;8.80;99.90;;;;;;4953853;28;20066;-92
2024/04/03 00:12:48;;;;;;;14.55;2.50;;;8.80;99.90;;;;;;4938079;28;20565;-91
2024/04/03 00:15:14;;;;;;;9.32;2.08;;;8.80;99.90;;;;;;4938483;28;20133;-91
2024/04/03 00:17:40;;;;;;;9.23;2.40;;;8.70;99.90;;;;;;4933981;28;20074;-92
2024/04/03 00:20:06;;;;;;;8.93;2.22;;;8.80;99.90;;;;;;4945192;28;20038;-91
2024/04/03 00:22:31;;;;;;;11.57;2.15;;;8.80;99.90;;;;;;4952564;28;20050;-91
2024/04/03 00:24:57;;;;;;;10.40;1.45;;;8.80;99.90;;;;;;4935771;28;20046;-92
2024/04/03 00:27:23;;;;;;;8.80;2.00;;;8.80;99.90;;;;;;4937718;28;20043;-92
2024/04/03 00:29:49;;;;;;;8.55;2.20;;;8.80;99.90;;;;;;4952683;28;20070;-91
2024/04/03 00:32:15;;;;;;;9.68;2.25;;;8.80;99.90;;;;;;4955167;28;20042;-92
2024/04/03 00:34:41;;;;;;;13.35;2.67;;;8.80;99.90;;;;;;4969034;28;20042;-92
2024/04/03 00:37:07;;;;;;;9.10;2.72;;;8.80;99.90;;;;;;4954693;28;20039;-92
2024/04/03 00:39:33;;;;;;;6.85;2.30;;;8.80;99.90;;;;;;4971117;28;20041;-92
2024/04/03 00:41:59;;;;;;;10.13;2.15;;;8.80;99.90;;;;;;4957975;28;20027;-91
2024/04/03 00:44:25;;;;;;;19.42;3.28;;;8.90;99.90;;;;;;4946414;28;20066;-91
2024/04/03 00:46:51;;;;;;;10.43;2.38;;;8.90;99.90;;;;;;4968934;28;20074;-91
2024/04/03 00:49:19;;;;;;;19.58;3.65;;;8.90;99.90;;;;;;4952964;28;20133;-91
2024/04/03 00:51:47;;;;;;;13.15;3.50;;;8.90;99.90;;;;;;4936811;28;20132;-91
2024/04/03 00:54:13;;;;;;;17.92;2.63;;;8.90;99.90;;;;;;4953569;28;20062;-91
2024/04/03 00:56:39;;;;;;;8.90;2.22;;;8.90;99.90;;;;;;4971056;28;20027;-91
2024/04/03 00:59:05;;;;;;;6.25;2.22;;;8.90;99.90;;;;;;4953366;28;20042;-91
2024/04/03 01:01:31;;;;;;;13.10;2.72;;;8.90;99.90;;;;;;4953652;28;20041;-92
2024/04/03 01:03:57;;;;;;;7.25;2.53;;;8.90;99.90;;;;;;4952567;28;20089;-91
2024/04/03 01:06:22;;;;;;;16.00;3.30;;;9.00;99.90;;;;;;4970673;28;20094;-91
2024/04/03 01:08:48;;;;;;;8.13;2.72;;;9.00;99.90;;;;;;4936914;28;20391;-91
2024/04/03 01:11:15;;;;;;;9.75;2.65;;;9.00;99.90;;;;;;4970870;28;20056;-91
2024/04/03 01:13:40;;;;;;;11.13;2.92;;;9.00;99.90;;;;;;4971143;28;20125;-91
2024/04/03 01:16:07;;;;;;;8.82;2.90;;;9.00;99.90;;;;;;4953178;28;20075;-90
2024/04/03 01:18:36;;;;;;;9.98;2.50;;;9.00;99.90;;;;;;4952666;28;20049;-91
2024/04/03 01:21:02;;;;;;;11.07;2.30;;;9.00;99.90;;;;;;4956619;28;20039;-91
2024/04/03 01:23:28;;;;;;;5.85;1.80;;;9.00;99.90;;;;;;4953140;28;20655;-91
2024/04/03 01:25:54;;;;;;;19.55;3.65;;;9.00;99.90;;;;;;4937126;28;20038;-90
2024/04/03 01:28:21;;;;;;;7.78;2.42;;;9.10;99.90;;;;;;4936939;28;20039;-89
2024/04/03 01:30:47;;;;;;;7.50;2.35;;;9.00;99.90;;;;;;4952474;28;20027;-89
2024/04/03 01:33:13;;;;;;;6.82;2.05;;;9.00;99.90;;;;;;4953452;28;20058;-91
2024/04/03 01:35:39;;;;;;;16.05;3.90;;;9.00;99.90;;;;;;4937022;28;20482;-90
2024/04/03 01:38:04;;;;;;;5.10;1.67;;;9.10;99.90;;;;;;4952655;28;20051;-90
2024/04/03 01:40:30;;;;;;;10.90;3.20;;;9.00;99.90;;;;;;4936385;28;20473;-90
2024/04/03 01:42:56;;;;;;;8.90;2.25;;;9.00;99.90;;;;;;4970108;28;20042;-90
2024/04/03 01:45:22;;;;;;;7.30;2.05;;;9.00;99.90;;;;;;4952477;28;20514;-90
2024/04/03 01:47:48;;;;;;;8.95;2.08;;;9.00;99.90;;;;;;4935552;28;20065;-90
2024/04/03 01:50:20;;;;;;;10.43;2.63;;;9.00;99.90;;;;;;4935432;28;20050;-90
2024/04/03 01:52:49;;;;;;;3.70;1.35;;;9.00;99.90;;;;;;4969862;28;20120;-89
2024/04/03 01:55:14;;;;;;;13.18;2.85;;;9.00;99.90;;;;;;4970162;28;20555;-90
2024/04/03 01:57:40;;;;;;;7.68;2.22;;;9.00;99.90;;;;;;4936365;28;20507;-90
2024/04/03 02:00:07;;;;;;;12.95;2.75;;;9.00;99.90;;;;;;4935991;28;20466;-90
2024/04/03 02:02:33;;;;;;;5.88;1.17;;;9.00;99.90;;;;;;4952369;28;20082;-90
2024/04/03 02:04:59;;;;;;;8.02;2.30;;;9.10;99.90;;;;;;4954371;28;20118;-90
2024/04/03 02:07:25;;;;;;;12.43;2.13;;;9.10;99.90;;;;;;4952438;28;20379;-90
2024/04/03 02:09:50;;;;;;;11.85;2.30;;;9.10;99.90;;;;;;4935523;28;20589;-90
2024/04/03 02:12:16;;;;;;;16.02;6.13;;;9.10;99.90;;;;;;4952794;28;20042;-90
2024/04/03 02:14:42;;;;;;;11.07;3.17;;;9.10;99.90;;;;;;4952769;28;20622;-90
2024/04/03 02:17:08;;;;;;;12.27;2.38;;;9.10;99.90;;;;;;4954024;28;21070;-91
2024/04/03 02:19:33;;;;;;;7.90;2.50;;;9.10;99.90;;;;;;4951632;28;20046;-90
2024/04/03 02:21:59;;;;;;;9.50;2.58;;;9.10;99.90;;;;;;4969098;28;20538;-90
2024/04/03 02:24:25;;;;;;;5.35;1.40;;;9.10;99.90;;;;;;4969245;28;20042;-91
2024/04/03 02:26:51;;;;;;;8.00;2.17;;;9.10;99.90;;;;;;4951565;28;20051;-90
2024/04/03 02:29:17;;;;;;;7.35;1.90;;;9.10;99.90;;;;;;4968941;28;20046;-90
2024/04/03 02:31:43;;;;;;;5.25;1.67;;;9.20;99.90;;;;;;4935932;28;20536;-90
2024/04/03 02:34:10;;;;;;;9.20;1.15;;;9.20;99.90;;;;;;4951919;28;20047;-90
2024/04/03 02:36:35;;;;;;;10.52;2.13;;;9.20;99.90;;;;;;4969113;28;20070;-91
2024/04/03 02:39:01;;;;;;;10.95;2.85;;;9.20;99.90;;;;;;4969096;28;20575;-91
2024/04/03 02:41:26;;;;;;;8.20;2.10;;;9.20;99.90;;;;;;4935626;28;20054;-90
2024/04/03 02:43:52;;;;;;;14.88;3.25;;;9.20;99.90;;;;;;4952072;28;20034;-90
2024/04/03 02:46:18;;;;;;;9.50;2.80;;;9.20;99.90;;;;;;4934935;28;20034;-90
2024/04/03 02:48:43;;;;;;;6.75;2.15;;;9.20;99.90;;;;;;4935270;28;20047;-91
2024/04/03 02:51:10;;;;;;;10.75;2.78;;;9.20;99.90;;;;;;4935880;28;20044;-91
2024/04/03 02:53:36;;;;;;;10.60;2.88;;;9.20;99.90;;;;;;4969206;28;20050;-90
2024/04/03 02:56:04;;;;;;;10.10;2.63;;;9.20;99.90;;;;;;4969235;28;20039;-91
2024/04/03 02:58:30;;;;;;;11.52;3.65;;;9.20;99.90;;;;;;4951237;28;20038;-91
2024/04/03 03:01:08;;;;;;;10.50;2.65;;;9.20;99.90;;;;;;4968991;28;20031;-91
2024/04/03 03:03:35;;;;;;;11.27;3.75;;;9.20;99.90;;;;;;4952002;28;20042;-91
2024/04/03 03:06:06;;;;;;;9.57;2.92;;;9.20;99.90;;;;;;4969819;28;20122;-91
2024/04/03 03:08:33;;;;;;;12.20;3.47;;;9.20;99.90;;;;;;4953687;28;20035;-91
2024/04/03 03:11:01;;;;;;;13.52;3.05;;;9.20;99.90;;;;;;4944476;28;20098;-92
2024/04/03 03:13:28;;;;;;;11.55;3.30;;;9.30;99.90;;;;;;4973963;28;20034;-91
2024/04/03 03:15:58;;;;;;;9.10;2.90;;;9.20;99.90;;;;;;4952957;28;20046;-91
2024/04/03 03:18:26;;;;;;;9.20;2.92;;;9.30;99.90;;;;;;4955089;28;20043;-91
2024/04/03 03:20:52;;;;;;;14.77;3.60;;;9.20;99.90;;;;;;4939319;28;20074;-91
2024/04/03 03:23:18;;;;;;;13.70;4.72;;;9.30;99.90;;;;;;4955493;28;20035;-91
2024/04/03 03:25:47;;;;;;;10.30;3.88;;;9.30;99.90;;;;;;4939131;28;20038;-92
2024/04/03 03:28:12;;;;;;;14.98;4.25;;;9.30;99.90;;;;;;4972791;28;20049;-92
2024/04/03 03:30:38;;;;;;;10.50;3.38;;;9.30;99.90;;;;;;4954266;28;20042;-92
2024/04/03 03:33:05;;;;;;;11.35;3.35;;;9.30;99.90;;;;;;4939599;28;20446;-92
2024/04/03 03:35:31;;;;;;;13.35;4.00;;;9.30;99.90;;;;;;4938521;28;20035;-92
2024/04/03 03:37:57;;;;;;;10.23;3.83;;;9.30;99.90;;;;;;4955049;28;20122;-92
2024/04/03 03:40:23;;;;;;;17.77;4.38;;;9.30;99.90;;;;;;4971727;28;20114;-91
2024/04/03 03:42:49;;;;;;;11.45;3.72;;;9.30;99.90;;;;;;4955018;28;20035;-92
2024/04/03 03:45:19;;;;;;;15.13;3.97;;;9.30;99.90;;;;;;4939247;28;20109;-92
2024/04/03 03:47:45;;;;;;;11.60;4.10;;;9.30;99.90;;;;;;4954375;28;20510;-91
2024/04/03 03:52:56;;;;;;;13.32;3.80;;;9.40;99.90;;;;;;4972421;28;20038;-92
2024/04/03 03:55:21;;;;;;;12.35;4.18;;;9.40;99.90;;;;;;4939105;28;20049;-92
2024/04/03 03:57:47;;;;;;;12.70;4.32;;;9.40;99.90;;;;;;4955640;28;20035;-92
2024/04/03 04:00:13;;;;;;;11.23;4.28;;;9.40;99.90;;;;;;4938537;28;20135;-92
2024/04/03 04:02:38;;;;;;;13.80;4.03;;;9.40;99.90;;;;;;4954692;28;20053;-91
2024/04/03 04:05:04;;;;;;;14.95;4.40;;;9.40;99.90;;;;;;4954377;28;20663;-92
2024/04/03 04:07:32;;;;;;;14.30;4.45;;;9.40;99.90;;;;;;4954542;28;20035;-92
2024/04/03 04:09:58;;;;;;;14.77;5.03;;;9.40;99.90;;;;;;4937300;28;20043;-92
2024/04/03 04:12:23;;;;;;;11.85;4.05;;;9.40;99.90;;;;;;4954668;28;20041;-92
2024/04/03 04:14:53;;;;;;;11.48;4.25;;;9.40;99.90;;;;;;4954964;28;20038;-92
2024/04/03 04:17:19;;;;;;;12.05;4.72;;;9.40;99.90;;;;;;4938555;28;20495;-91
2024/04/03 04:19:45;;;;;;;17.23;5.60;;;9.40;99.90;;;;;;4953797;28;20080;-92
2024/04/03 04:22:12;;;;;;;15.00;4.65;;;9.50;99.90;;;;;;4971856;28;20117;-92
2024/04/03 04:24:38;;;;;;;14.75;5.40;;;9.40;99.90;;;;;;4971508;28;20042;-92
2024/04/03 04:27:08;;;;;;;14.82;5.95;;;9.50;99.90;;;;;;4954881;28;20057;-92
2024/04/03 04:29:37;;;;;;;17.35;5.80;;;9.50;99.90;;;;;;4937599;28;20089;-92
2024/04/03 04:32:07;;;;;;;14.02;5.07;;;9.50;99.90;;;;;;4954059;28;20473;-91
2024/04/03 04:34:33;;;;;;;11.82;5.82;;;9.50;99.90;;;;;;4954482;28;20050;-92
2024/04/03 04:36:58;;;;;;;18.02;6.60;;;9.50;99.90;;;;;;4971137;28;20106;-92
2024/04/03 04:39:24;;;;;;;13.98;6.50;;;9.50;99.90;;;;;;4937571;28;20669;-92
2024/04/03 04:41:53;;;;;;;13.88;5.05;;;9.50;99.90;;;;;;4937929;28;20038;-92
2024/04/03 04:44:19;;;;;;;12.50;6.15;;;9.50;99.90;;;;;;4954096;28;20035;-92
2024/04/03 04:46:52;;;;;;;16.05;5.68;;;9.50;99.90;;;;;;4970548;28;20035;-92
2024/04/03 04:49:20;;;;;;;16.25;5.68;;;9.60;99.90;;;;;;4970636;28;20039;-92
2024/04/03 04:51:45;;;;;;;14.63;6.95;;;9.60;99.90;;;;;;4953527;28;20066;-92
2024/04/03 04:54:13;;;;;;;12.85;5.63;;;9.60;99.90;;;;;;4954076;28;20106;-92
2024/04/03 04:56:39;;;;;;;11.77;6.07;;;9.60;99.90;;;;;;4953573;28;20047;-92
2024/04/03 04:59:05;;;;;;;14.85;6.45;;;9.60;99.90;;;;;;4954603;28;20039;-92
2024/04/03 05:01:33;;;;;;;13.70;6.53;;;9.60;99.90;;;;;;4953459;28;20055;-92
2024/04/03 05:04:02;;;;;;;13.90;5.75;;;9.60;99.90;;;;;;4936751;28;20045;-92
2024/04/03 05:06:28;;;;;;;12.98;5.90;;;9.60;99.90;;;;;;4937162;28;20051;-92
2024/04/03 05:08:55;;;;;;;15.85;6.97;;;9.60;99.90;;;;;;4970275;28;20081;-92
2024/04/03 05:11:21;;;;;;;13.82;6.32;;;9.70;99.90;;;;;;4970426;28;20695;-91
2024/04/03 05:13:47;;;;;;;12.90;5.15;;;9.70;99.90;;;;;;4937944;28;20046;-93
2024/04/03 05:16:18;;;;;;;12.70;5.80;;;9.70;99.90;;;;;;4970773;28;20042;-91
2024/04/03 05:18:44;;;;;;;13.63;5.60;;;9.70;99.90;;;;;;4937152;28;20526;-91
2024/04/03 05:21:10;;;;;;;11.48;5.20;;;9.70;99.90;;;;;;4970917;28;20027;-92
2024/04/03 05:23:36;;;;;;;12.35;5.53;;;9.70;99.90;;;;;;4954021;28;20094;-92
2024/04/03 05:26:04;;;;;;;10.75;5.07;;;9.70;99.90;;;;;;4972488;28;20648;-91
2024/04/03 05:28:32;;;;;;;12.35;5.30;;;9.70;99.90;;;;;;4952993;28;20035;-91
2024/04/03 05:31:03;;;;;;;13.00;5.85;;;9.70;99.90;;;;;;4952689;28;20074;-92
2024/04/03 05:33:29;;;;;;;13.73;6.35;;;9.70;99.90;;;;;;4953860;28;20117;-92
2024/04/03 05:35:56;;;;;;;18.90;15.77;;;9.70;99.90;;;;;;4954544;28;20034;-92
2024/04/03 05:38:22;;;;;;;14.95;5.28;;;9.80;99.90;;;;;;4938772;28;20050;-92
2024/04/03 05:40:49;;;;;;;13.38;6.55;;;9.80;99.90;;;;;;4939376;28;20042;-91
2024/04/03 05:43:15;;;;;;;13.23;5.07;;;9.80;99.90;;;;;;4948067;28;20041;-92
2024/04/03 05:45:40;;;;;;;12.48;5.88;;;9.80;99.90;;;;;;4956162;28;20130;-92
2024/04/03 05:48:07;;;;;;;14.45;5.72;;;9.80;99.90;;;;;;4969953;28;20089;-92
2024/04/03 05:50:33;;;;;;;16.55;5.25;;;9.80;99.90;;;;;;4952131;28;20521;-91
2024/04/03 05:52:58;;;;;;;14.50;5.22;;;9.80;99.90;;;;;;4937063;28;20038;-92
2024/04/03 05:55:24;;;;;;;12.48;4.65;;;9.90;99.90;;;;;;4937289;28;20665;-92
2024/04/03 05:57:51;;;;;;;11.80;4.82;;;9.90;99.90;;;;;;4952980;28;20073;-92
2024/04/03 06:00:16;;;;;;;22.00;15.68;;;9.90;99.90;;;;;;4952056;28;20063;-92
2024/04/03 06:02:42;;;;;;;12.60;5.80;;;10.00;99.90;;;;;;4970261;28;20504;-92
2024/04/03 06:05:08;;;;;;;12.75;5.07;;;10.00;99.90;;;;;;4936791;28;20042;-92
2024/04/03 06:07:34;;;;;;;12.10;5.65;;;10.00;99.90;;;;;;4910907;28;20337;-91
2024/04/03 06:10:01;;;;;;;11.32;5.15;;;10.00;99.90;;;;;;4928909;28;20233;-91
2024/04/03 06:12:27;;;;;;;11.77;5.07;;;10.00;99.90;;;;;;4930211;28;20545;-92
2024/04/03 06:14:52;;;;;;;12.32;6.70;;;10.00;99.90;;;;;;4911488;28;20821;-92
2024/04/03 06:17:18;;;;;;;17.65;15.65;;;10.00;99.90;;;;;;4943763;28;20229;-91
2024/04/03 06:19:45;;;;;;;12.43;6.38;;;10.10;99.90;;;;;;4893189;28;20097;-92
2024/04/03 06:22:10;;;;;;;12.25;5.07;;;10.10;99.90;;;;;;4947234;28;20057;-93
2024/04/03 06:24:36;;;;;;;10.75;5.30;;;10.10;99.90;;;;;;4952116;28;20121;-93
2024/04/03 06:27:03;;;;;;;13.45;5.28;;;10.10;99.90;;;;;;4952180;28;20057;-92
2024/04/03 06:29:29;;;;;;;21.77;16.08;;;10.10;99.90;;;;;;4935707;28;20161;-91
2024/04/03 06:31:55;;;;;;;9.65;5.15;;;10.20;99.90;;;;;;4951814;28;20542;-92
2024/04/03 06:34:21;;;;;;;11.98;5.18;;;10.20;99.90;;;;;;4936670;28;20125;-92
2024/04/03 06:36:47;;;;;;;17.85;14.95;;;10.20;99.90;;;;;;4953016;28;20122;-90
2024/04/03 06:39:12;;;;;;;10.60;5.47;;;10.30;99.90;;;;;;4934239;28;20121;-91
2024/04/03 06:41:38;;;;;;;11.75;5.63;;;10.30;99.90;;;;;;4967876;28;20435;-92
2024/04/03 06:44:03;;;;;;;13.02;6.45;;;10.30;99.90;;;;;;4967212;28;20042;-92
2024/04/03 06:46:29;;;;;;;13.40;5.88;;;10.30;99.90;;;;;;4950307;28;20039;-92
2024/04/03 06:48:55;;;;;;;9.07;4.50;;;10.30;99.90;;;;;;4950511;28;20081;-92
2024/04/03 06:51:20;;;;;;;10.90;5.35;;;10.30;99.90;;;;;;4970344;28;20066;-92
2024/04/03 06:53:48;;;;;;;14.65;11.32;;;10.30;99.90;;;;;;4952290;28;20475;-93
2024/04/03 06:56:13;;;;;;;9.18;4.32;;;10.40;99.90;;;;;;4935925;28;20074;-91
2024/04/03 06:58:43;;;;;;;9.95;4.68;;;10.40;99.90;;;;;;4918405;28;20039;-92
2024/04/03 07:01:11;;;;;;;8.48;3.83;;;10.40;99.90;;;;;;4890040;29;20050;-92
2024/04/03 07:03:37;;;;;;;11.18;5.18;;;10.40;99.90;;;;;;4905799;28;20085;-92
2024/04/03 07:06:03;;;;;;;10.70;4.47;;;10.40;99.90;;;;;;4894352;28;20149;-92
2024/04/03 07:08:29;;;;;;;11.43;4.00;;;10.40;99.90;;;;;;4926430;28;20042;-92
2024/04/03 07:10:55;;;;;;;12.63;10.13;;;10.40;99.90;;;;;;4910050;28;20038;-91
2024/04/03 07:13:21;;;;;;;11.05;4.30;;;10.50;99.90;;;;;;4895290;28;20057;-91
2024/04/03 07:15:48;;;;;;;8.48;3.17;;;10.50;99.90;;;;;;4902909;28;20035;-91
2024/04/03 07:18:14;;;;;;;7.63;3.53;;;10.50;99.90;;;;;;4935921;28;20729;-92
2024/04/03 07:20:41;;;;;;;9.32;3.78;;;10.50;99.90;;;;;;4935307;28;20030;-92
2024/04/03 07:23:07;;;;;;;9.55;3.97;;;10.50;99.90;;;;;;4954072;28;20133;-92
2024/04/03 07:25:33;;;;;;;10.48;3.88;;;10.50;99.90;;;;;;4950630;28;20129;-92
2024/04/03 07:28:11;;;;;;;12.45;9.73;;;10.50;99.90;;;;;;4967437;28;20073;-91
2024/04/03 07:30:39;;;;;;;11.10;4.05;;;10.70;99.90;;;;;;4949925;28;20043;-92
2024/04/03 07:33:05;;;;;;;8.02;3.45;;;10.60;99.90;;;;;;4950757;28;20050;-92
2024/04/03 07:35:41;;;;;;;12.18;8.82;;;10.60;99.90;;;;;;4938032;28;20039;-92
2024/04/03 07:38:08;;;;;;;13.00;9.45;;;10.70;99.90;;;;;;4933651;28;20039;-91
2024/04/03 07:40:35;;;;;;;11.82;4.28;;;10.80;99.90;;;;;;4934633;28;20094;-93
2024/04/03 07:43:01;;;;;;;9.48;3.25;;;10.70;99.90;;;;;;4967657;28;20106;-91
2024/04/03 07:45:27;;;;;;;8.90;3.22;;;10.70;99.90;;;;;;4950091;28;20591;-92
2024/04/03 07:47:53;;;;;;;9.20;3.88;;;10.70;99.90;;;;;;4949847;28;20062;-92
2024/04/03 07:50:19;;;;;;;8.35;3.22;;;10.60;99.90;;;;;;4934991;28;20043;-92
2024/04/03 07:52:44;;;;;;;11.93;8.00;;;10.70;99.90;;;;;;4968800;28;20070;-92
2024/04/03 07:55:14;;;;;;;12.00;8.15;;;10.70;99.90;;;;;;4968785;28;20058;-92
2024/04/03 07:57:40;;;;;;;10.32;2.97;;;10.80;99.90;;;;;;4935546;28;20061;-92
2024/04/03 08:00:08;;;;;;;7.82;2.97;;;10.80;99.90;;;;;;4968506;28;20031;-92
2024/04/03 08:02:42;;;;;;;10.93;7.00;;;10.80;99.90;;;;;;4954335;28;20042;-92
2024/04/03 08:05:13;;;;;;;9.70;2.72;;;10.90;99.90;;;;;;4939049;28;20047;-93
2024/04/03 08:07:40;;;;;;;8.23;2.80;;;10.90;99.90;;;;;;4955480;28;20121;-93
2024/04/03 08:10:07;;;;;;;11.98;7.03;;;10.90;99.90;;;;;;4973226;28;20573;-91
2024/04/03 08:12:34;;;;;;;7.35;2.75;;;10.90;99.90;;;;;;4975063;28;20078;-91
2024/04/03 08:15:00;;;;;;;5.63;2.50;;;10.90;99.90;;;;;;4966559;28;20050;-91
2024/04/03 08:17:28;;;;;;;8.27;2.75;;;10.90;99.90;;;;;;4957816;28;20512;-91
2024/04/03 08:19:55;;;;;;;8.50;2.50;;;10.90;99.90;;;;;;4954442;28;20042;-92
2024/04/03 08:22:21;;;;;;;7.38;2.40;;;11.00;99.90;;;;;;4938764;28;20038;-93
2024/04/03 08:24:48;;;;;;;6.07;2.42;;;11.00;99.90;;;;;;4938322;28;20422;-92
2024/04/03 08:27:14;;;;;;;12.02;6.95;;;11.00;99.90;;;;;;4954435;28;20045;-92
2024/04/03 08:29:42;;;;;;;13.07;7.35;;;11.10;99.90;;;;;;4953966;28;20632;-91
2024/04/03 08:32:11;;;;;;;8.32;2.63;;;11.20;99.90;;;;;;4954471;28;20054;-91
2024/04/03 08:34:37;;;;;;;12.60;8.10;;;11.20;99.90;;;;;;4970488;28;20042;-91
2024/04/03 08:37:06;;;;;;;7.57;3.40;;;11.30;99.90;;;;;;4970546;28;20035;-92
2024/04/03 08:39:32;;;;;;;7.90;3.53;;;11.30;99.90;;;;;;4938843;28;20565;-92
2024/04/03 08:42:00;;;;;;;8.50;3.33;;;11.30;99.90;;;;;;4929841;28;20324;-91
2024/04/03 08:44:31;;;;;;;7.50;3.20;;;11.30;99.90;;;;;;4897042;28;20042;-91
2024/04/03 08:46:58;;;;;;;10.48;4.55;;;11.40;99.90;;;;;;4912977;28;20390;-91
2024/04/03 08:49:28;;;;;;;9.98;4.38;;;11.40;99.90;;;;;;4912821;28;20086;-91
2024/04/03 08:52:11;;;;;;;7.53;4.03;;;11.50;99.90;;;;;;4929689;28;20038;-91
2024/04/03 08:54:40;;;;;;;12.55;9.57;;;11.50;99.90;;;;;;4913009;28;20550;-91
2024/04/03 08:57:07;;;;;;;11.02;5.50;;;11.60;99.90;;;;;;4944961;28;20042;-91
2024/04/03 08:59:40;;;;;;;8.30;4.30;;;11.60;99.90;;;;;;4937291;28;20039;-92
2024/04/03 09:02:06;;;;;;;13.25;10.73;;;11.60;99.90;;;;;;4954816;28;20043;-92
2024/04/03 09:04:33;;;;;;;12.07;5.70;;;11.70;99.90;;;;;;4953554;28;20035;-92
2024/04/03 09:06:59;;;;;;;11.02;5.25;;;11.70;99.90;;;;;;4952090;28;20046;-92
2024/04/03 09:09:27;;;;;;;10.25;5.78;;;11.70;99.90;;;;;;4952002;28;20122;-92
2024/04/03 09:12:13;;;;;;;14.25;6.60;;;11.70;99.90;;;;;;4951959;28;20097;-93
2024/04/03 09:14:39;;;;;;;12.48;5.80;;;11.70;99.90;;;;;;4968981;28;20039;-92
2024/04/03 09:17:05;;;;;;;14.70;11.43;;;11.80;99.90;;;;;;4951805;28;20101;-92
2024/04/03 09:19:32;;;;;;;12.75;5.80;;;11.80;99.90;;;;;;4952126;28;20042;-92
2024/04/03 09:22:00;;;;;;;10.63;4.35;;;11.80;99.90;;;;;;4936598;28;20043;-92
2024/04/03 09:24:26;;;;;;;9.75;4.55;;;11.90;99.90;;;;;;4953553;28;20027;-92
2024/04/03 09:26:56;;;;;;;11.20;5.30;;;11.90;99.90;;;;;;4968830;28;20045;-93
2024/04/03 09:29:22;;;;;;;12.98;5.95;;;11.90;99.90;;;;;;4951718;28;20122;-93
2024/04/03 09:31:49;;;;;;;12.48;6.22;;;11.80;99.90;;;;;;4951980;28;20034;-92
2024/04/03 09:34:15;;;;;;;14.32;9.60;;;11.80;99.90;;;;;;4953465;28;20073;-92
2024/04/03 09:36:41;;;;;;;12.55;4.72;;;11.90;99.90;;;;;;4936951;28;20047;-92
2024/04/03 09:39:09;;;;;;;9.10;4.40;;;11.80;99.90;;;;;;4952725;28;20038;-92
2024/04/03 09:41:35;;;;;;;10.52;4.85;;;11.80;99.90;;;;;;4952929;28;20035;-93
2024/04/03 09:44:02;;;;;;;9.52;4.00;;;11.80;99.90;;;;;;4970599;28;20047;-93
2024/04/03 09:46:54;;;;;;;12.57;8.98;;;11.80;99.90;;;;;;4952002;28;20034;-93
2024/04/03 09:49:23;;;;;;;12.05;5.07;;;11.90;99.90;;;;;;4936494;28;20041;-92
2024/04/03 09:51:50;;;;;;;12.40;4.68;;;12.00;99.90;;;;;;4936396;28;20054;-92
2024/04/03 09:54:17;;;;;;;11.40;5.22;;;12.00;99.90;;;;;;4952973;28;20074;-93
2024/04/03 09:56:43;;;;;;;10.80;4.22;;;12.00;99.90;;;;;;4966547;28;20042;-92
2024/04/03 09:59:10;;;;;;;7.72;4.03;;;12.00;99.90;;;;;;4898291;28;20105;-92
2024/04/03 10:01:36;;;;;;;10.48;3.97;;;12.10;99.90;;;;;;4912693;28;20210;-92
2024/04/03 10:04:03;;;;;;;9.32;4.60;;;12.10;99.90;;;;;;4897193;28;20503;-92
2024/04/03 10:06:38;;;;;;;9.40;4.43;;;12.10;99.90;;;;;;4912319;28;20146;-92
2024/04/03 10:09:17;;;;;;;13.38;7.97;;;12.10;99.90;;;;;;4930523;28;20146;-92
2024/04/03 10:11:56;;;;;;;9.57;4.45;;;12.20;99.90;;;;;;4913047;28;20038;-91
2024/04/03 10:14:29;;;;;;;8.10;3.72;;;12.20;99.90;;;;;;4898244;28;20038;-92
2024/04/03 10:16:56;;;;;;;9.95;4.30;;;12.20;99.90;;;;;;4937786;28;20558;-92
2024/04/03 10:19:22;;;;;;;11.23;4.35;;;12.20;99.90;;;;;;4936544;28;20049;-91
2024/04/03 10:21:48;;;;;;;10.98;5.93;;;12.20;99.90;;;;;;4936204;28;20498;-92
2024/04/03 10:24:14;;;;;;;9.48;3.33;;;12.20;99.90;;;;;;4952256;28;20113;-92
2024/04/03 10:26:40;;;;;;;7.93;3.10;;;12.20;99.90;;;;;;4936116;28;20061;-92
2024/04/03 10:29:06;;;;;;;10.25;5.50;;;12.10;99.90;;;;;;4970104;28;20043;-91
2024/04/03 10:31:32;;;;;;;9.57;3.17;;;12.10;99.90;;;;;;4935949;28;20051;-92
2024/04/03 10:33:57;;;;;;;9.85;5.43;;;12.10;99.90;;;;;;4953435;28;20078;-93
2024/04/03 10:36:23;;;;;;;9.98;2.88;;;12.10;99.90;;;;;;4953524;28;20498;-92
2024/04/03 10:38:49;;;;;;;10.43;5.15;;;12.00;99.90;;;;;;4938945;28;20414;-92
2024/04/03 10:41:15;;;;;;;6.10;2.53;;;12.10;99.90;;;;;;4939616;28;20035;-92
2024/04/03 10:43:40;;;;;;;10.57;5.28;;;12.10;99.90;;;;;;4969688;28;20118;-92
2024/04/03 10:46:11;;;;;;;7.97;2.67;;;12.10;99.90;;;;;;4951937;28;20027;-93
2024/04/03 10:48:42;;;;;;;9.65;3.20;;;12.20;99.90;;;;;;4952137;28;20042;-94
2024/04/03 10:51:08;;;;;;;9.10;3.25;;;12.20;99.90;;;;;;4936705;28;20051;-92
2024/04/03 10:53:37;;;;;;;10.18;3.33;;;12.30;99.90;;;;;;4935854;28;20518;-93
2024/04/03 10:56:03;;;;;;;10.65;5.97;;;12.40;99.90;;;;;;4970200;28;20073;-92
2024/04/03 10:58:29;;;;;;;12.68;6.45;;;12.60;99.90;;;;;;4951611;28;20039;-93
2024/04/03 11:00:55;;;;;;;10.48;6.07;;;12.70;99.90;;;;;;4935737;28;20049;-93
2024/04/03 11:03:22;;;;;;;10.60;3.55;;;12.70;99.90;;;;;;4936085;28;20062;-92
2024/04/03 11:05:49;;;;;;;7.05;2.47;;;12.70;99.90;;;;;;4951317;28;20582;-93
2024/04/03 11:08:16;;;;;;;9.63;3.35;;;12.60;99.90;;;;;;4969226;28;20050;-94
2024/04/03 11:10:41;;;;;;;9.48;4.78;;;12.60;99.90;;;;;;4951183;28;20069;-93
2024/04/03 11:13:09;;;;;;;4.00;1.90;;;12.70;99.90;;;;;;4968141;28;20070;-93
2024/04/03 11:15:35;;;;;;;9.30;4.72;;;12.60;99.90;;;;;;4935443;28;20046;-93
2024/04/03 11:18:01;;;;;;;8.73;3.22;;;12.60;99.90;;;;;;4933866;28;20042;-93
2024/04/03 11:20:29;;;;;;;5.95;2.55;;;12.50;99.90;;;;;;4934307;28;20039;-93
2024/04/03 11:22:56;;;;;;;6.93;2.17;;;12.40;99.90;;;;;;4934798;28;20404;-93
2024/04/03 11:25:22;;;;;;;7.53;2.53;;;12.30;99.90;;;;;;4952145;28;20054;-93
2024/04/03 11:27:48;;;;;;;12.73;2.65;;;12.20;99.90;;;;;;4935088;28;20038;-92
2024/04/03 11:30:14;;;;;;;8.27;3.50;;;12.10;99.90;;;;;;4937407;28;20054;-93
2024/04/03 11:32:40;;;;;;;5.82;2.20;;;12.10;99.90;;;;;;4935670;28;20034;-92
2024/04/03 11:35:08;;;;;;;5.55;1.92;;;12.10;99.90;;;;;;4935951;28;20039;-93
2024/04/03 11:37:38;;;;;;;4.75;1.75;;;12.10;99.90;;;;;;4938208;28;20086;-93
2024/04/03 11:40:05;;;;;;;6.90;2.20;;;12.10;99.90;;;;;;4972119;28;20039;-93
2024/04/03 11:42:32;;;;;;;9.10;3.25;;;12.10;99.90;;;;;;4954948;28;20030;-93
2024/04/03 11:44:58;;;;;;;5.97;2.03;;;12.10;99.90;;;;;;4937564;28;20096;-93
2024/04/03 11:47:24;;;;;;;4.35;1.55;;;12.10;99.90;;;;;;4937690;28;20453;-93
2024/04/03 11:49:50;;;;;;;5.10;1.65;;;12.10;99.90;;;;;;4954759;28;20045;-93
2024/04/03 11:52:16;;;;;;;6.13;1.80;;;12.10;99.90;;;;;;4938984;28;20651;-94
2024/04/03 11:54:42;;;;;;;6.03;1.95;;;12.10;99.90;;;;;;4955015;28;20034;-94
2024/04/03 11:57:09;;;;;;;3.28;1.35;;;12.20;99.90;;;;;;4954968;28;20046;-93
2024/04/03 11:59:35;;;;;;;5.00;1.40;;;12.20;99.90;;;;;;4954626;28;20050;-94
2024/04/03 12:02:04;;;;;;;5.85;2.25;;;12.20;99.90;;;;;;4938921;28;20753;-93
2024/04/03 12:04:31;;;;;;;4.75;1.55;;;12.20;99.90;;;;;;4973265;28;20045;-93
2024/04/03 12:06:57;;;;;;;3.88;1.25;;;12.20;99.90;;;;;;4972265;28;20064;-93
2024/04/03 12:09:22;;;;;;;2.33;1.00;;;12.00;99.90;;;;;;4971873;28;20747;-93
2024/04/03 12:11:48;;;;;;;2.17;1.02;;;12.00;99.90;;;;;;4972267;28;20042;-93
2024/04/03 12:14:14;;;;;;;4.32;1.30;;;12.00;99.90;;;;;;4973339;28;20053;-94
2024/04/03 12:16:40;;;;;;;5.63;1.80;;;12.00;99.90;;;;;;4972038;28;20043;-93
2024/04/03 12:19:26;;;;;;;5.00;1.45;;;12.00;99.90;;;;;;4977705;28;20038;-92
2024/04/03 12:21:55;;;;;;;8.57;2.75;;;12.00;99.90;;;;;;4941630;28;20038;-93
2024/04/03 12:24:22;;;;;;;3.97;1.55;;;12.00;99.90;;;;;;4942273;28;20043;-93
2024/04/03 12:26:48;;;;;;;4.40;1.70;;;12.00;99.90;;;;;;4941546;28;20047;-93
2024/04/03 12:29:16;;;;;;;4.65;1.63;;;12.00;99.90;;;;;;4957440;28;20042;-92
2024/04/03 12:31:42;;;;;;;3.50;1.35;;;12.00;99.90;;;;;;4949827;28;20050;-93
2024/04/03 12:34:09;;;;;;;3.55;1.35;;;12.00;99.90;;;;;;4941704;28;20039;-93
2024/04/03 12:36:38;;;;;;;4.97;1.48;;;12.00;99.90;;;;;;4974201;28;20078;-92
2024/04/03 12:39:04;;;;;;;7.03;3.33;;;12.00;99.90;;;;;;4973160;28;20469;-93
2024/04/03 12:41:31;;;;;;;4.15;1.75;;;12.10;99.90;;;;;;4982888;28;20098;-93
2024/04/03 12:43:56;;;;;;;4.72;1.85;;;12.30;99.90;;;;;;4938271;29;20094;-93
2024/04/03 12:46:22;;;;;;;7.28;2.13;;;12.40;99.90;;;;;;4935739;28;20043;-93